Twin Bridges, CA (95721)

10:52 PM PDT on August 29, 2015 (GMT -0700)
Tahoe Keys | | Change Station
CLOSE
Current Station
Personal Weather Station
Location: South Lake Tahoe, CA
Elevation: 6296 ft
Nearby Weather Stations
Active Advisory: Lake Wind Advisory

Elev 6296 ft 38.92 °N, 120.01 °W | Updated 5 minutes ago

Clear
Clear
55.8 °F
Feels Like 55.8 °F
N
3.2
Wind Variable Wind from SW

Today
High -- | Low -- °F
--% Chance of Precip.
Yesterday
High -- | Low -- °F
Precip. -- in
6:26 AM 7:35 PM
Full, 100% visible
Pressure 29.97 in
Visibility 10.0 miles
Clouds Clear
Dew Point 44 °F
Humidity 65%
Rainfall 0.00 in
Snow Depth Not available.
UV 0 out of 12
Pollen 8.60 out of 12
Air Quality Not available.
Flu Activity Not available.
METAR KTVL 300453Z AUTO 14009G15KT 10SM CLR 16/07 A3015 RMK AO2 SLP148 T01560072
Pressure 29.97 in
Visibility 10.0 miles
Clouds Clear
Dew Point 44 °F
Humidity 65%
Rainfall 0.00 in
Snow Depth Not available.
UV 0 out of 12
Pollen 8.60 out of 12
Air Quality Not available.
Flu Activity Not available.
METAR KTVL 300453Z AUTO 14009G15KT 10SM CLR 16/07 A3015 RMK AO2 SLP148 T01560072

10-Day Weather Forecast

×

Almanac

Astronomy

Aug. 29, 2015 Rise Set
Actual Time
Civil Twilight
Nautical Twilight
Astronomical Twilight
Moon
Length of Visible Light
Length of Day
Tomorrow will be .
, % of the Moon is Illuminated

Today's Extremes

State Highs State Lows

Community

WunderPhotos

Upload Photos

1,850,896 photos uploaded!

WunderBlogs® & News

Nearby

Air Quality

  Air Quality AQ Index Pollutant
Not available.

Snow Depth

Station Depth Elevation

Earthquake Activity

City Distance Mag. Time & Date
Minimum magnitude displayed is 2.5.

Coastal Water Temperatures

Place Temperature

Stations

Nearby Weather Stations

Station Location Temp. Windchill Dew Point Humidity Wind Precip. Elev Updated Type
                   
Lake Wind Advisory
Statement as of 8:33 PM PDT on August 29, 2015

... Lake Wind Advisory remains in effect until 3 am PDT Sunday...

A lake Wind Advisory remains in effect until 3 am PDT Sunday.

* Winds: southwest 15 to 25 with gusts to 35 mph.

* Wave heights on lake tahoe: 2 to 3 feet with highest waves on
north and east shores.

* Small boats will be prone to capsizing and should remain off
lake waters until conditions improve.




Http://weather.Gov/Reno